sensor_id;sensor_type;location;lat;lon;timestamp;pressure;altitude;pressure_sealevel;temperature
66180;BMP280;52986;44.028;20.466;2023-02-03T00:01:00;98735.03;;;3.55
66180;BMP280;52986;44.028;20.466;2023-02-03T00:03:26;98744.16;;;3.58
66180;BMP280;52986;44.028;20.466;2023-02-03T00:05:51;98743.41;;;3.61
66180;BMP280;52986;44.028;20.466;2023-02-03T00:08:18;98748.75;;;3.65
66180;BMP280;52986;44.028;20.466;2023-02-03T00:10:44;98759.78;;;3.70
66180;BMP280;52986;44.028;20.466;2023-02-03T00:13:10;98756.00;;;3.71
66180;BMP280;52986;44.028;20.466;2023-02-03T00:15:35;98757.50;;;3.76
66180;BMP280;52986;44.028;20.466;2023-02-03T00:18:00;98769.66;;;3.80
66180;BMP280;52986;44.028;20.466;2023-02-03T00:20:26;98766.66;;;3.82
66180;BMP280;52986;44.028;20.466;2023-02-03T00:22:51;98769.72;;;3.88
66180;BMP280;52986;44.028;20.466;2023-02-03T00:25:17;98769.00;;;3.91
66180;BMP280;52986;44.028;20.466;2023-02-03T00:27:43;98771.72;;;4.01
66180;BMP280;52986;44.028;20.466;2023-02-03T00:30:10;98771.31;;;3.96
66180;BMP280;52986;44.028;20.466;2023-02-03T00:32:35;98792.53;;;3.96
66180;BMP280;52986;44.028;20.466;2023-02-03T00:35:00;98789.09;;;3.99
66180;BMP280;52986;44.028;20.466;2023-02-03T00:37:26;98785.66;;;3.91
66180;BMP280;52986;44.028;20.466;2023-02-03T00:39:51;98794.00;;;3.93
66180;BMP280;52986;44.028;20.466;2023-02-03T00:42:17;98796.31;;;3.95
66180;BMP280;52986;44.028;20.466;2023-02-03T00:44:42;98800.81;;;3.91
66180;BMP280;52986;44.028;20.466;2023-02-03T00:47:07;98797.81;;;3.96
66180;BMP280;52986;44.028;20.466;2023-02-03T00:49:33;98805.38;;;3.94
66180;BMP280;52986;44.028;20.466;2023-02-03T00:51:58;98804.59;;;3.93
66180;BMP280;52986;44.028;20.466;2023-02-03T00:54:24;98811.06;;;3.96
66180;BMP280;52986;44.028;20.466;2023-02-03T00:56:49;98808.44;;;3.96
66180;BMP280;52986;44.028;20.466;2023-02-03T00:59:14;98806.16;;;3.94
66180;BMP280;52986;44.028;20.466;2023-02-03T01:01:40;98802.72;;;3.94
66180;BMP280;52986;44.028;20.466;2023-02-03T01:04:05;98806.91;;;3.98
66180;BMP280;52986;44.028;20.466;2023-02-03T01:06:31;98811.81;;;4.00
66180;BMP280;52986;44.028;20.466;2023-02-03T01:08:56;98805.38;;;3.94
66180;BMP280;52986;44.028;20.466;2023-02-03T01:11:24;98807.69;;;4.02
66180;BMP280;52986;44.028;20.466;2023-02-03T01:13:50;98803.13;;;3.99
66180;BMP280;52986;44.028;20.466;2023-02-03T01:16:19;98802.72;;;3.94
66180;BMP280;52986;44.028;20.466;2023-02-03T01:18:45;98800.47;;;3.99
66180;BMP280;52986;44.028;20.466;2023-02-03T01:21:16;98806.13;;;3.98
66180;BMP280;52986;44.028;20.466;2023-02-03T01:23:42;98797.81;;;3.96
66180;BMP280;52986;44.028;20.466;2023-02-03T01:26:10;98800.88;;;4.01
66180;BMP280;52986;44.028;20.466;2023-02-03T01:28:36;98795.59;;;4.05
66180;BMP280;52986;44.028;20.466;2023-02-03T01:31:09;98801.69;;;4.09
66180;BMP280;52986;44.028;20.466;2023-02-03T01:33:35;98801.34;;;4.14
66180;BMP280;52986;44.028;20.466;2023-02-03T01:36:01;98815.75;;;4.13
66180;BMP280;52986;44.028;20.466;2023-02-03T01:38:26;98809.25;;;4.10
66180;BMP280;52986;44.028;20.466;2023-02-03T01:40:52;98807.78;;;4.13
66180;BMP280;52986;44.028;20.466;2023-02-03T01:43:28;98808.50;;;4.10
66180;BMP280;52986;44.028;20.466;2023-02-03T01:45:55;98811.91;;;4.10
66180;BMP280;52986;44.028;20.466;2023-02-03T01:48:21;98812.34;;;4.12
66180;BMP280;52986;44.028;20.466;2023-02-03T01:50:46;98815.38;;;4.14
66180;BMP280;52986;44.028;20.466;2023-02-03T01:53:12;98818.41;;;4.13
66180;BMP280;52986;44.028;20.466;2023-02-03T01:55:42;98812.34;;;4.12
66180;BMP280;52986;44.028;20.466;2023-02-03T01:58:21;98811.19;;;4.13
66180;BMP280;52986;44.028;20.466;2023-02-03T02:00:51;98804.38;;;4.16
66180;BMP280;52986;44.028;20.466;2023-02-03T02:03:22;98801.75;;;4.20
66180;BMP280;52986;44.028;20.466;2023-02-03T02:06:05;98814.63;;;4.21
66180;BMP280;52986;44.028;20.466;2023-02-03T02:08:31;98821.81;;;4.21
66180;BMP280;52986;44.028;20.466;2023-02-03T02:11:03;98817.28;;;4.21
66180;BMP280;52986;44.028;20.466;2023-02-03T02:13:43;98822.63;;;4.25
66180;BMP280;52986;44.028;20.466;2023-02-03T02:18:53;98830.19;;;4.26
66180;BMP280;52986;44.028;20.466;2023-02-03T02:30:42;98830.59;;;4.28
66180;BMP280;52986;44.028;20.466;2023-02-03T02:33:48;98828.31;;;4.30
66180;BMP280;52986;44.028;20.466;2023-02-03T02:36:30;98834.41;;;4.31
66180;BMP280;52986;44.028;20.466;2023-02-03T02:39:03;98830.25;;;4.33
66180;BMP280;52986;44.028;20.466;2023-02-03T02:42:07;98831.78;;;4.34
66180;BMP280;52986;44.028;20.466;2023-02-03T02:44:43;98829.50;;;4.33
66180;BMP280;52986;44.028;20.466;2023-02-03T02:47:21;98825.34;;;4.35
66180;BMP280;52986;44.028;20.466;2023-02-03T02:52:29;98835.94;;;4.39
66180;BMP280;52986;44.028;20.466;2023-02-03T02:55:00;98831.03;;;4.41
66180;BMP280;52986;44.028;20.466;2023-02-03T02:57:27;98836.34;;;4.41
66180;BMP280;52986;44.028;20.466;2023-02-03T02:59:54;98839.38;;;4.39
66180;BMP280;52986;44.028;20.466;2023-02-03T03:02:19;98842.00;;;4.39
66180;BMP280;52986;44.028;20.466;2023-02-03T03:04:47;98843.16;;;4.42
66180;BMP280;52986;44.028;20.466;2023-02-03T03:07:18;98851.50;;;4.40
66180;BMP280;52986;44.028;20.466;2023-02-03T03:09:49;98837.47;;;4.36
66180;BMP280;52986;44.028;20.466;2023-02-03T03:12:31;98852.28;;;4.37
66180;BMP280;52986;44.028;20.466;2023-02-03T03:15:00;98852.63;;;4.39
66180;BMP280;52986;44.028;20.466;2023-02-03T03:17:30;98852.66;;;4.47
66180;BMP280;52986;44.028;20.466;2023-02-03T03:20:01;98862.09;;;4.40
66180;BMP280;52986;44.028;20.466;2023-02-03T03:22:33;98860.97;;;4.41
66180;BMP280;52986;44.028;20.466;2023-02-03T03:25:04;98865.56;;;4.45
66180;BMP280;52986;44.028;20.466;2023-02-03T03:27:37;98871.56;;;4.41
66180;BMP280;52986;44.028;20.466;2023-02-03T03:30:09;98872.34;;;4.42
66180;BMP280;52986;44.028;20.466;2023-02-03T03:32:36;98869.69;;;4.38
66180;BMP280;52986;44.028;20.466;2023-02-03T03:35:03;98863.22;;;4.36
66180;BMP280;52986;44.028;20.466;2023-02-03T03:37:40;98856.44;;;4.38
66180;BMP280;52986;44.028;20.466;2023-02-03T03:40:24;98857.19;;;4.42
66180;BMP280;52986;44.028;20.466;2023-02-03T03:45:27;98856.47;;;4.46
66180;BMP280;52986;44.028;20.466;2023-02-03T03:48:10;98864.75;;;4.40
66180;BMP280;52986;44.028;20.466;2023-02-03T03:50:41;98861.00;;;4.45
66180;BMP280;52986;44.028;20.466;2023-02-03T03:53:09;98856.47;;;4.46
66180;BMP280;52986;44.028;20.466;2023-02-03T03:55:37;98854.53;;;4.42
66180;BMP280;52986;44.028;20.466;2023-02-03T03:58:14;98859.50;;;4.44
66180;BMP280;52986;44.028;20.466;2023-02-03T04:00:42;98869.38;;;4.51
66180;BMP280;52986;44.028;20.466;2023-02-03T04:03:17;98869.06;;;4.63
66180;BMP280;52986;44.028;20.466;2023-02-03T04:05:44;98868.28;;;4.59
66180;BMP280;52986;44.028;20.466;2023-02-03T04:08:10;98875.06;;;4.53
66180;BMP280;52986;44.028;20.466;2023-02-03T04:10:37;98870.09;;;4.48
66180;BMP280;52986;44.028;20.466;2023-02-03T04:13:04;98877.69;;;4.46
66180;BMP280;52986;44.028;20.466;2023-02-03T04:15:31;98879.97;;;4.47
66180;BMP280;52986;44.028;20.466;2023-02-03T04:17:57;98871.63;;;4.49
66180;BMP280;52986;44.028;20.466;2023-02-03T04:20:23;98870.09;;;4.48
66180;BMP280;52986;44.028;20.466;2023-02-03T04:22:49;98874.66;;;4.47
66180;BMP280;52986;44.028;20.466;2023-02-03T04:25:14;98870.53;;;4.50
66180;BMP280;52986;44.028;20.466;2023-02-03T04:27:40;98873.94;;;4.50
66180;BMP280;52986;44.028;20.466;2023-02-03T04:30:06;98880.72;;;4.48
66180;BMP280;52986;44.028;20.466;2023-02-03T04:32:32;98887.91;;;4.43
66180;BMP280;52986;44.028;20.466;2023-02-03T04:34:59;98882.25;;;4.49
66180;BMP280;52986;44.028;20.466;2023-02-03T04:37:25;98873.91;;;4.47
66180;BMP280;52986;44.028;20.466;2023-02-03T04:39:51;98879.16;;;4.39
66180;BMP280;52986;44.028;20.466;2023-02-03T04:42:17;98874.66;;;4.43
66180;BMP280;52986;44.028;20.466;2023-02-03T04:44:43;98882.56;;;4.40
66180;BMP280;52986;44.028;20.466;2023-02-03T04:47:08;98877.66;;;4.38
66180;BMP280;52986;44.028;20.466;2023-02-03T04:49:34;98884.47;;;4.39
66180;BMP280;52986;44.028;20.466;2023-02-03T04:51:59;98891.69;;;4.46
66180;BMP280;52986;44.028;20.466;2023-02-03T04:54:24;98889.44;;;4.45
66180;BMP280;52986;44.028;20.466;2023-02-03T04:56:50;98885.25;;;4.43
66180;BMP280;52986;44.028;20.466;2023-02-03T04:59:15;98885.25;;;4.43
66180;BMP280;52986;44.028;20.466;2023-02-03T05:01:41;98881.81;;;4.39
66180;BMP280;52986;44.028;20.466;2023-02-03T05:04:06;98876.13;;;4.37
66180;BMP280;52986;44.028;20.466;2023-02-03T05:06:32;98878.78;;;4.37
66180;BMP280;52986;44.028;20.466;2023-02-03T05:08:57;98889.38;;;4.34
66180;BMP280;52986;44.028;20.466;2023-02-03T05:11:23;98879.91;;;4.36
66180;BMP280;52986;44.028;20.466;2023-02-03T05:13:49;98882.53;;;4.36
66180;BMP280;52986;44.028;20.466;2023-02-03T05:16:14;98886.00;;;4.37
66180;BMP280;52986;44.028;20.466;2023-02-03T05:18:40;98896.22;;;4.38
66180;BMP280;52986;44.028;20.466;2023-02-03T05:21:05;98888.25;;;4.42
66180;BMP280;52986;44.028;20.466;2023-02-03T05:23:31;98886.72;;;4.34
66180;BMP280;52986;44.028;20.466;2023-02-03T05:25:56;98887.84;;;4.33
66180;BMP280;52986;44.028;20.466;2023-02-03T05:28:22;98893.53;;;4.31
66180;BMP280;52986;44.028;20.466;2023-02-03T05:30:47;98893.53;;;4.31
66180;BMP280;52986;44.028;20.466;2023-02-03T05:33:12;98898.06;;;4.31
66180;BMP280;52986;44.028;20.466;2023-02-03T05:35:38;98899.22;;;4.33
66180;BMP280;52986;44.028;20.466;2023-02-03T05:38:03;98902.25;;;4.35
66180;BMP280;52986;44.028;20.466;2023-02-03T05:40:29;98909.81;;;4.33
66180;BMP280;52986;44.028;20.466;2023-02-03T05:43:13;98921.94;;;4.34
66180;BMP280;52986;44.028;20.466;2023-02-03T05:45:38;98920.44;;;4.33
66180;BMP280;52986;44.028;20.466;2023-02-03T05:48:04;98921.22;;;4.37
66180;BMP280;52986;44.028;20.466;2023-02-03T05:50:31;98923.03;;;4.30
66180;BMP280;52986;44.028;20.466;2023-02-03T05:53:02;98926.06;;;4.28
66180;BMP280;52986;44.028;20.466;2023-02-03T05:55:28;98919.56;;;4.22
66180;BMP280;52986;44.028;20.466;2023-02-03T05:57:54;98908.56;;;4.20
66180;BMP280;52986;44.028;20.466;2023-02-03T06:00:20;98905.94;;;4.24
66180;BMP280;52986;44.028;20.466;2023-02-03T06:02:57;98899.47;;;4.21
66180;BMP280;52986;44.028;20.466;2023-02-03T06:05:24;98894.91;;;4.18
66180;BMP280;52986;44.028;20.466;2023-02-03T06:07:49;98897.22;;;4.23
66180;BMP280;52986;44.028;20.466;2023-02-03T06:10:15;98907.09;;;4.26
66180;BMP280;52986;44.028;20.466;2023-02-03T06:12:41;98901.00;;;4.22
66180;BMP280;52986;44.028;20.466;2023-02-03T06:15:07;98902.13;;;4.21
66180;BMP280;52986;44.028;20.466;2023-02-03T06:17:33;98902.50;;;4.16
66180;BMP280;52986;44.028;20.466;2023-02-03T06:20:01;98908.53;;;4.13
66180;BMP280;52986;44.028;20.466;2023-02-03T06:22:26;98909.69;;;4.16
66180;BMP280;52986;44.028;20.466;2023-02-03T06:24:51;98916.53;;;4.20
66180;BMP280;52986;44.028;20.466;2023-02-03T06:27:17;98925.22;;;4.17
66180;BMP280;52986;44.028;20.466;2023-02-03T06:29:42;98926.72;;;4.18
66180;BMP280;52986;44.028;20.466;2023-02-03T06:32:11;98931.31;;;4.21
66180;BMP280;52986;44.028;20.466;2023-02-03T06:34:36;98931.72;;;4.27
66180;BMP280;52986;44.028;20.466;2023-02-03T06:37:01;98938.22;;;4.33
66180;BMP280;52986;44.028;20.466;2023-02-03T06:39:27;98936.72;;;4.35
66180;BMP280;52986;44.028;20.466;2023-02-03T06:41:52;98939.00;;;4.33
66180;BMP280;52986;44.028;20.466;2023-02-03T06:44:19;98947.38;;;4.42
66180;BMP280;52986;44.028;20.466;2023-02-03T06:46:45;98949.31;;;4.46
66180;BMP280;52986;44.028;20.466;2023-02-03T06:49:10;98949.31;;;4.46
66180;BMP280;52986;44.028;20.466;2023-02-03T06:51:35;98962.13;;;4.36
66180;BMP280;52986;44.028;20.466;2023-02-03T06:54:01;98958.72;;;4.39
66180;BMP280;52986;44.028;20.466;2023-02-03T06:56:28;98961.03;;;4.45
66180;BMP280;52986;44.028;20.466;2023-02-03T06:58:54;98965.94;;;4.42
66180;BMP280;52986;44.028;20.466;2023-02-03T07:01:19;98972.75;;;4.40
66180;BMP280;52986;44.028;20.466;2023-02-03T07:03:45;98963.25;;;4.35
66180;BMP280;52986;44.028;20.466;2023-02-03T07:06:11;98963.22;;;4.32
66180;BMP280;52986;44.028;20.466;2023-02-03T07:08:36;98961.78;;;4.38
66180;BMP280;52986;44.028;20.466;2023-02-03T07:11:02;98958.41;;;4.45
66180;BMP280;52986;44.028;20.466;2023-02-03T07:13:27;98948.97;;;4.51
66180;BMP280;52986;44.028;20.466;2023-02-03T07:15:53;98946.72;;;4.60
66180;BMP280;52986;44.028;20.466;2023-02-03T07:18:18;98951.72;;;4.65
66180;BMP280;52986;44.028;20.466;2023-02-03T07:20:48;98950.94;;;4.61
66180;BMP280;52986;44.028;20.466;2023-02-03T07:23:14;98950.53;;;4.59
66180;BMP280;52986;44.028;20.466;2023-02-03T07:25:39;98955.56;;;4.71
66180;BMP280;52986;44.028;20.466;2023-02-03T07:28:04;98952.97;;;4.82
66180;BMP280;52986;44.028;20.466;2023-02-03T07:30:30;98961.00;;;4.92
66180;BMP280;52986;44.028;20.466;2023-02-03T07:32:55;98956.75;;;4.81
66180;BMP280;52986;44.028;20.466;2023-02-03T07:35:20;98959.81;;;4.86
66180;BMP280;52986;44.028;20.466;2023-02-03T07:37:46;98965.88;;;4.87
66180;BMP280;52986;44.028;20.466;2023-02-03T07:40:13;98966.59;;;4.80
66180;BMP280;52986;44.028;20.466;2023-02-03T07:42:43;98968.56;;;4.90
66180;BMP280;52986;44.028;20.466;2023-02-03T07:45:09;98972.34;;;4.89
66180;BMP280;52986;44.028;20.466;2023-02-03T07:47:35;98970.03;;;4.84
66180;BMP280;52986;44.028;20.466;2023-02-03T07:50:01;98971.16;;;4.83
66180;BMP280;52986;44.028;20.466;2023-02-03T07:52:26;98971.22;;;4.90
66180;BMP280;52986;44.028;20.466;2023-02-03T07:54:52;98971.63;;;4.92
66180;BMP280;52986;44.028;20.466;2023-02-03T07:57:26;98973.09;;;4.86
66180;BMP280;52986;44.028;20.466;2023-02-03T07:59:51;98977.28;;;4.87
66180;BMP280;52986;44.028;20.466;2023-02-03T08:02:17;98984.09;;;4.88
66180;BMP280;52986;44.028;20.466;2023-02-03T08:04:42;98977.28;;;4.94
66180;BMP280;52986;44.028;20.466;2023-02-03T08:07:08;98987.19;;;4.97
66180;BMP280;52986;44.028;20.466;2023-02-03T08:09:33;98986.81;;;4.99
66180;BMP280;52986;44.028;20.466;2023-02-03T08:11:59;98984.53;;;4.97
66180;BMP280;52986;44.028;20.466;2023-02-03T08:14:24;98991.72;;;4.93
66180;BMP280;52986;44.028;20.466;2023-02-03T08:16:49;98985.22;;;4.87
66180;BMP280;52986;44.028;20.466;2023-02-03T08:19:15;98993.22;;;4.94
66180;BMP280;52986;44.028;20.466;2023-02-03T08:21:40;98984.13;;;4.95
66180;BMP280;52986;44.028;20.466;2023-02-03T08:24:05;98985.75;;;5.11
66180;BMP280;52986;44.028;20.466;2023-02-03T08:26:31;98984.22;;;5.13
66180;BMP280;52986;44.028;20.466;2023-02-03T08:28:56;98986.13;;;5.13
66180;BMP280;52986;44.028;20.466;2023-02-03T08:31:22;98993.38;;;5.19
66180;BMP280;52986;44.028;20.466;2023-02-03T08:33:47;98995.31;;;5.29
66180;BMP280;52986;44.028;20.466;2023-02-03T08:36:12;98998.72;;;5.26
66180;BMP280;52986;44.028;20.466;2023-02-03T08:38:39;99000.69;;;5.47
66180;BMP280;52986;44.028;20.466;2023-02-03T08:41:13;99000.28;;;5.45
66180;BMP280;52986;44.028;20.466;2023-02-03T08:43:39;99004.84;;;5.45
66180;BMP280;52986;44.028;20.466;2023-02-03T08:46:06;99010.97;;;5.52
66180;BMP280;52986;44.028;20.466;2023-02-03T08:48:32;98999.97;;;5.54
66180;BMP280;52986;44.028;20.466;2023-02-03T08:50:57;99000.00;;;5.65
66180;BMP280;52986;44.028;20.466;2023-02-03T08:53:23;99000.00;;;5.65
66180;BMP280;52986;44.028;20.466;2023-02-03T08:55:49;98998.81;;;5.48
66180;BMP280;52986;44.028;20.466;2023-02-03T08:58:14;99001.09;;;5.49
66180;BMP280;52986;44.028;20.466;2023-02-03T09:00:40;98998.47;;;5.53
66180;BMP280;52986;44.028;20.466;2023-02-03T09:03:06;99004.94;;;5.66
66180;BMP280;52986;44.028;20.466;2023-02-03T09:05:32;99008.34;;;5.63
66180;BMP280;52986;44.028;20.466;2023-02-03T09:07:57;98999.69;;;5.98
66180;BMP280;52986;44.028;20.466;2023-02-03T09:10:26;99008.47;;;6.52
66180;BMP280;52986;44.028;20.466;2023-02-03T09:12:51;98998.66;;;8.62
66180;BMP280;52986;44.028;20.466;2023-02-03T09:15:17;98993.44;;;8.47
66180;BMP280;52986;44.028;20.466;2023-02-03T09:17:43;99002.69;;;8.36
66180;BMP280;52986;44.028;20.466;2023-02-03T09:20:09;98998.28;;;8.15
66180;BMP280;52986;44.028;20.466;2023-02-03T09:22:40;98996.28;;;7.78
66180;BMP280;52986;44.028;20.466;2023-02-03T09:25:06;98997.94;;;7.50
66180;BMP280;52986;44.028;20.466;2023-02-03T09:27:31;98992.75;;;7.15
66180;BMP280;52986;44.028;20.466;2023-02-03T09:29:57;98988.28;;;6.97
66180;BMP280;52986;44.028;20.466;2023-02-03T09:32:22;99001.94;;;7.10
66180;BMP280;52986;44.028;20.466;2023-02-03T09:34:48;98996.81;;;7.48
66180;BMP280;52986;44.028;20.466;2023-02-03T09:37:13;99001.56;;;7.88
66180;BMP280;52986;44.028;20.466;2023-02-03T09:39:39;99022.59;;;8.31
66180;BMP280;52986;44.028;20.466;2023-02-03T09:45:09;99003.22;;;10.10
66180;BMP280;52986;44.028;20.466;2023-02-03T09:47:41;99000.88;;;9.65
66180;BMP280;52986;44.028;20.466;2023-02-03T09:50:13;98991.56;;;9.16
66180;BMP280;52986;44.028;20.466;2023-02-03T09:52:42;98985.31;;;8.62
66180;BMP280;52986;44.028;20.466;2023-02-03T10:00:35;99015.16;;;10.29
66180;BMP280;52986;44.028;20.466;2023-02-03T10:03:27;98989.41;;;14.09
66180;BMP280;52986;44.028;20.466;2023-02-03T10:18:52;99019.69;;;18.06
66180;BMP280;52986;44.028;20.466;2023-02-03T10:21:37;98975.31;;;16.15
66180;BMP280;52986;44.028;20.466;2023-02-03T10:24:10;99027.09;;;15.68
66180;BMP280;52986;44.028;20.466;2023-02-03T10:26:37;99027.69;;;16.72
66180;BMP280;52986;44.028;20.466;2023-02-03T10:29:19;99019.03;;;15.77
66180;BMP280;52986;44.028;20.466;2023-02-03T10:31:46;99023.53;;;18.00
66180;BMP280;52986;44.028;20.466;2023-02-03T10:34:14;99036.78;;;19.15
66180;BMP280;52986;44.028;20.466;2023-02-03T10:36:52;98980.78;;;17.08
66180;BMP280;52986;44.028;20.466;2023-02-03T10:39:31;98981.38;;;13.97
66180;BMP280;52986;44.028;20.466;2023-02-03T10:42:02;98972.03;;;12.91
66180;BMP280;52986;44.028;20.466;2023-02-03T10:47:53;99008.81;;;16.45
66180;BMP280;52986;44.028;20.466;2023-02-03T10:50:24;99002.50;;;16.39
66180;BMP280;52986;44.028;20.466;2023-02-03T10:55:43;98969.19;;;17.08
66180;BMP280;52986;44.028;20.466;2023-02-03T10:58:15;98941.50;;;15.28
66180;BMP280;52986;44.028;20.466;2023-02-03T11:00:42;98942.75;;;14.13
66180;BMP280;52986;44.028;20.466;2023-02-03T11:03:24;98976.22;;;17.15
66180;BMP280;52986;44.028;20.466;2023-02-03T11:06:04;98938.72;;;18.14
66180;BMP280;52986;44.028;20.466;2023-02-03T11:08:32;98936.00;;;15.96
66180;BMP280;52986;44.028;20.466;2023-02-03T11:11:14;98969.25;;;16.66
66180;BMP280;52986;44.028;20.466;2023-02-03T11:16:38;98955.25;;;18.45
66180;BMP280;52986;44.028;20.466;2023-02-03T11:19:20;98917.03;;;17.46
66180;BMP280;52986;44.028;20.466;2023-02-03T11:21:49;98904.88;;;16.09
66180;BMP280;52986;44.028;20.466;2023-02-03T11:26:47;98915.19;;;13.14
66180;BMP280;52986;44.028;20.466;2023-02-03T11:29:33;98905.69;;;12.17
66180;BMP280;52986;44.028;20.466;2023-02-03T11:32:06;98906.56;;;11.36
66180;BMP280;52986;44.028;20.466;2023-02-03T11:34:39;98901.53;;;11.38
66180;BMP280;52986;44.028;20.466;2023-02-03T11:37:26;98900.50;;;11.00
66180;BMP280;52986;44.028;20.466;2023-02-03T11:42:58;98890.75;;;10.89
66180;BMP280;52986;44.028;20.466;2023-02-03T11:47:55;98897.81;;;12.39
66180;BMP280;52986;44.028;20.466;2023-02-03T11:50:37;98894.53;;;12.86
66180;BMP280;52986;44.028;20.466;2023-02-03T12:10:26;98866.59;;;19.18
66180;BMP280;52986;44.028;20.466;2023-02-03T12:29:10;98813.03;;;17.43
66180;BMP280;52986;44.028;20.466;2023-02-03T12:34:47;98803.47;;;15.81
66180;BMP280;52986;44.028;20.466;2023-02-03T12:37:28;98794.28;;;15.79
66180;BMP280;52986;44.028;20.466;2023-02-03T12:39:58;98784.56;;;16.23
66180;BMP280;52986;44.028;20.466;2023-02-03T12:42:31;98784.72;;;14.86
66180;BMP280;52986;44.028;20.466;2023-02-03T12:45:07;98782.97;;;15.47
66180;BMP280;52986;44.028;20.466;2023-02-03T12:50:19;98765.13;;;16.58
66180;BMP280;52986;44.028;20.466;2023-02-03T12:52:57;98758.00;;;16.13
66180;BMP280;52986;44.028;20.466;2023-02-03T12:55:46;98740.91;;;15.55
66180;BMP280;52986;44.028;20.466;2023-02-03T12:58:21;98721.91;;;15.40
66180;BMP280;52986;44.028;20.466;2023-02-03T13:01:23;98716.28;;;14.34
66180;BMP280;52986;44.028;20.466;2023-02-03T13:04:08;98713.69;;;12.47
66180;BMP280;52986;44.028;20.466;2023-02-03T13:06:44;98699.06;;;11.72
66180;BMP280;52986;44.028;20.466;2023-02-03T13:12:00;98680.91;;;11.76
66180;BMP280;52986;44.028;20.466;2023-02-03T13:14:33;98679.72;;;11.77
66180;BMP280;52986;44.028;20.466;2023-02-03T13:17:27;98675.34;;;11.83
66180;BMP280;52986;44.028;20.466;2023-02-03T13:20:06;98665.56;;;11.06
66180;BMP280;52986;44.028;20.466;2023-02-03T13:22:38;98651.56;;;10.69
66180;BMP280;52986;44.028;20.466;2023-02-03T13:25:08;98647.03;;;10.33
66180;BMP280;52986;44.028;20.466;2023-02-03T13:27:45;98643.84;;;10.55
66180;BMP280;52986;44.028;20.466;2023-02-03T13:40:46;98626.06;;;11.35
66180;BMP280;52986;44.028;20.466;2023-02-03T13:43:16;98618.97;;;10.87
66180;BMP280;52986;44.028;20.466;2023-02-03T13:45:45;98613.09;;;10.76
66180;BMP280;52986;44.028;20.466;2023-02-03T13:48:25;98608.81;;;10.78
66180;BMP280;52986;44.028;20.466;2023-02-03T13:51:02;98609.09;;;10.68
66180;BMP280;52986;44.028;20.466;2023-02-03T13:53:36;98597.47;;;10.42
66180;BMP280;52986;44.028;20.466;2023-02-03T13:56:05;98597.13;;;10.23
66180;BMP280;52986;44.028;20.466;2023-02-03T13:58:33;98588.09;;;10.17
66180;BMP280;52986;44.028;20.466;2023-02-03T14:05:57;98588.56;;;9.80
66180;BMP280;52986;44.028;20.466;2023-02-03T14:16:44;98567.63;;;10.11
66180;BMP280;52986;44.028;20.466;2023-02-03T14:22:05;98556.56;;;9.92
66180;BMP280;52986;44.028;20.466;2023-02-03T14:24:34;98567.78;;;10.03
66180;BMP280;52986;44.028;20.466;2023-02-03T14:27:03;98568.38;;;10.11
66180;BMP280;52986;44.028;20.466;2023-02-03T14:29:31;98557.03;;;9.71
66180;BMP280;52986;44.028;20.466;2023-02-03T14:31:59;98552.59;;;9.81
66180;BMP280;52986;44.028;20.466;2023-02-03T14:34:32;98555.56;;;9.86
66180;BMP280;52986;44.028;20.466;2023-02-03T14:37:25;98554.50;;;10.00
66180;BMP280;52986;44.028;20.466;2023-02-03T14:40:05;98548.47;;;10.12
66180;BMP280;52986;44.028;20.466;2023-02-03T14:43:04;98545.69;;;9.99
66180;BMP280;52986;44.028;20.466;2023-02-03T14:59:29;98507.50;;;9.47
66180;BMP280;52986;44.028;20.466;2023-02-03T15:02:10;98498.28;;;9.31
66180;BMP280;52986;44.028;20.466;2023-02-03T15:04:35;98490.69;;;9.30
66180;BMP280;52986;44.028;20.466;2023-02-03T15:07:01;98491.03;;;9.12
66180;BMP280;52986;44.028;20.466;2023-02-03T15:09:40;98484.19;;;9.11
66180;BMP280;52986;44.028;20.466;2023-02-03T15:14:41;98471.50;;;8.95
66180;BMP280;52986;44.028;20.466;2023-02-03T15:17:21;98463.22;;;8.90
66180;BMP280;52986;44.028;20.466;2023-02-03T15:19:48;98455.38;;;8.82
66180;BMP280;52986;44.028;20.466;2023-02-03T15:22:28;98447.44;;;8.79
66180;BMP280;52986;44.028;20.466;2023-02-03T15:24:57;98437.97;;;8.74
66180;BMP280;52986;44.028;20.466;2023-02-03T15:27:25;98435.72;;;8.73
66180;BMP280;52986;44.028;20.466;2023-02-03T15:29:52;98434.28;;;8.68
66180;BMP280;52986;44.028;20.466;2023-02-03T15:32:47;98430.47;;;8.66
66180;BMP280;52986;44.028;20.466;2023-02-03T15:35:17;98424.13;;;8.60
66180;BMP280;52986;44.028;20.466;2023-02-03T15:37:48;98416.53;;;8.58
66180;BMP280;52986;44.028;20.466;2023-02-03T15:40:19;98407.44;;;8.56
66180;BMP280;52986;44.028;20.466;2023-02-03T15:43:06;98404.50;;;8.50
66180;BMP280;52986;44.028;20.466;2023-02-03T15:46:00;98393.44;;;8.48
66180;BMP280;52986;44.028;20.466;2023-02-03T15:48:33;98398.25;;;8.37
66180;BMP280;52986;44.028;20.466;2023-02-03T15:51:08;98394.06;;;8.36
66180;BMP280;52986;44.028;20.466;2023-02-03T15:53:46;98393.19;;;8.42
66180;BMP280;52986;44.028;20.466;2023-02-03T15:56:23;98387.22;;;8.35
66180;BMP280;52986;44.028;20.466;2023-02-03T15:58:52;98378.94;;;8.29
66180;BMP280;52986;44.028;20.466;2023-02-03T16:01:20;98374.06;;;8.24
66180;BMP280;52986;44.028;20.466;2023-02-03T16:03:49;98370.03;;;8.16
66180;BMP280;52986;44.028;20.466;2023-02-03T16:06:31;98365.09;;;8.14
66180;BMP280;52986;44.028;20.466;2023-02-03T16:09:02;98359.34;;;8.16
66180;BMP280;52986;44.028;20.466;2023-02-03T16:13:53;98354.16;;;8.09
66180;BMP280;52986;44.028;20.466;2023-02-03T16:16:25;98360.38;;;8.02
66180;BMP280;52986;44.028;20.466;2023-02-03T16:18:57;98353.84;;;8.03
66180;BMP280;52986;44.028;20.466;2023-02-03T16:24:04;98342.72;;;8.08
66180;BMP280;52986;44.028;20.466;2023-02-03T16:26:31;98343.47;;;8.09
66180;BMP280;52986;44.028;20.466;2023-02-03T16:31:47;98340.09;;;8.05
66180;BMP280;52986;44.028;20.466;2023-02-03T16:34:32;98331.75;;;8.03
66180;BMP280;52986;44.028;20.466;2023-02-03T16:40:03;98334.38;;;8.06
66180;BMP280;52986;44.028;20.466;2023-02-03T16:42:47;98338.28;;;8.02
66180;BMP280;52986;44.028;20.466;2023-02-03T16:45:31;98333.28;;;8.04
66180;BMP280;52986;44.028;20.466;2023-02-03T16:48:15;98344.28;;;8.06
66180;BMP280;52986;44.028;20.466;2023-02-03T16:51:03;98330.94;;;8.06
66180;BMP280;52986;44.028;20.466;2023-02-03T16:53:31;98328.28;;;8.06